Time;durP1;ratioP1;P1;durP2;ratioP2;P2;SDS_P1;SDS_P2;PMS_P1;PMS_P2;Temp;Humidity;BMP_temperature;BMP_pressure;BME280_temperature;BME280_humidity;BME280_pressure;Samples;Min_cycle;Max_cycle;Signal;HPM_P1;HPM_P2
2022/06/28 00:00:53;;;;;;;;;;;30.10;85.70;;;;;;5091017;28;19938;-77
2022/06/28 00:03:21;;;;;;;;;;;30.00;84.40;;;;;;5090692;28;20004;-77
2022/06/28 00:05:49;;;;;;;;;;;30.00;84.20;;;;;;5074401;28;19923;-76
2022/06/28 00:08:16;;;;;;;;;;;30.10;84.30;;;;;;5091134;28;19926;-77
2022/06/28 00:10:43;;;;;;;;;;;30.00;84.40;;;;;;5092390;28;19928;-77
2022/06/28 00:13:11;;;;;;;;;;;30.00;84.20;;;;;;5090921;28;20051;-77
2022/06/28 00:18:24;;;;;;;;;;;29.90;84.20;;;;;;5092049;28;19997;-77
2022/06/28 00:20:53;;;;;;;;;;;29.80;84.40;;;;;;5089322;28;19947;-77
2022/06/28 00:23:20;;;;;;;;;;;29.80;84.60;;;;;;5073836;28;19924;-76
2022/06/28 00:25:48;;;;;;;;;;;29.80;84.60;;;;;;5091051;28;19927;-77
2022/06/28 00:28:15;;;;;;;;;;;29.70;84.40;;;;;;5074255;28;19924;-76
2022/06/28 00:30:42;;;;;;;;;;;29.70;84.50;;;;;;5107661;28;19924;-76
2022/06/28 00:33:10;;;;;;;;;;;29.70;84.70;;;;;;5090496;28;19997;-76
2022/06/28 00:35:37;;;;;;;;;;;29.70;84.60;;;;;;5093877;28;19923;-77
2022/06/28 00:38:05;;;;;;;;;;;29.80;84.60;;;;;;5110940;28;19976;-77
2022/06/28 00:40:33;;;;;;;;;;;29.80;84.70;;;;;;5093947;28;19923;-77
2022/06/28 00:43:00;;;;;;;;;;;29.80;84.60;;;;;;5093781;28;19966;-77
2022/06/28 00:45:27;;;;;;;;;;;29.70;84.70;;;;;;5112159;28;19945;-77
2022/06/28 00:47:55;;;;;;;;;;;29.70;84.60;;;;;;5093672;28;19926;-77
2022/06/28 00:50:23;;;;;;;;;;;29.70;84.60;;;;;;5093946;28;19924;-77
2022/06/28 00:53:04;;;;;;;;;;;29.70;84.60;;;;;;5093964;28;19924;-77
2022/06/28 00:55:32;;;;;;;;;;;29.70;84.20;;;;;;5093897;28;20317;-76
2022/06/28 00:58:00;;;;;;;;;;;29.70;83.20;;;;;;5093903;28;19953;-77
2022/06/28 01:00:29;;;;;;;;;;;29.70;83.00;;;;;;5110406;28;19973;-76
2022/06/28 01:02:57;;;;;;;;;;;29.80;82.90;;;;;;5110144;28;19943;-77
2022/06/28 01:05:25;;;;;;;;;;;29.80;82.60;;;;;;5093496;28;19924;-76
2022/06/28 01:07:53;;;;;;;;;;;29.70;82.70;;;;;;5093408;28;19931;-76
2022/06/28 01:10:23;;;;;;;;;;;29.70;82.80;;;;;;5093124;28;19976;-77
2022/06/28 01:12:50;;;;;;;;;;;29.70;83.00;;;;;;5093074;28;19923;-76
2022/06/28 01:15:18;;;;;;;;;;;29.60;83.20;;;;;;5109695;28;20141;-77
2022/06/28 01:17:50;;;;;;;;;;;29.60;83.40;;;;;;5110147;28;19919;-77
2022/06/28 01:20:37;;;;;;;;;;;29.60;83.50;;;;;;5093748;28;20362;-77
2022/06/28 01:23:24;;;;;;;;;;;29.60;83.60;;;;;;5110281;28;20495;-76
2022/06/28 01:26:01;;;;;;;;;;;29.60;83.70;;;;;;5093658;28;20353;-77
2022/06/28 01:28:35;;;;;;;;;;;29.60;83.70;;;;;;5093223;28;19919;-77
2022/06/28 01:31:24;;;;;;;;;;;29.50;83.60;;;;;;5085170;28;20279;-76
2022/06/28 01:33:55;;;;;;;;;;;29.50;84.00;;;;;;5092159;28;19934;-76
2022/06/28 01:36:23;;;;;;;;;;;29.50;84.20;;;;;;5091530;28;20313;-76
2022/06/28 01:38:51;;;;;;;;;;;29.50;84.50;;;;;;5108852;28;20018;-77
2022/06/28 01:41:33;;;;;;;;;;;29.40;84.40;;;;;;5108386;28;20365;-76
2022/06/28 01:44:11;;;;;;;;;;;29.40;84.10;;;;;;5091961;28;19927;-76
2022/06/28 01:47:06;;;;;;;;;;;29.40;84.10;;;;;;5108319;28;19931;-76
2022/06/28 01:49:54;;;;;;;;;;;29.30;83.30;;;;;;5101609;28;19931;-77
2022/06/28 01:52:23;;;;;;;;;;;29.30;83.30;;;;;;5086804;28;19950;-76
2022/06/28 01:54:51;;;;;;;;;;;29.30;82.90;;;;;;5095887;28;19967;-77
2022/06/28 01:57:19;;;;;;;;;;;29.20;82.30;;;;;;5112675;28;19919;-76
2022/06/28 01:59:54;;;;;;;;;;;29.20;81.90;;;;;;5113151;28;19927;-76
2022/06/28 02:02:41;;;;;;;;;;;29.20;80.20;;;;;;5107361;28;20392;-76
2022/06/28 02:05:27;;;;;;;;;;;29.20;79.50;;;;;;5110998;28;19969;-77
2022/06/28 02:07:56;;;;;;;;;;;29.20;78.90;;;;;;5093615;28;20050;-76
2022/06/28 02:10:26;;;;;;;;;;;29.20;78.50;;;;;;5091669;28;19931;-76
2022/06/28 02:12:54;;;;;;;;;;;29.10;78.10;;;;;;5092497;28;20082;-76
2022/06/28 02:15:22;;;;;;;;;;;29.10;77.70;;;;;;5091384;28;19967;-77
2022/06/28 02:17:50;;;;;;;;;;;29.00;78.50;;;;;;5074998;28;19970;-76
2022/06/28 02:20:19;;;;;;;;;;;29.00;78.90;;;;;;5091732;28;19966;-76
2022/06/28 02:22:46;;;;;;;;;;;29.00;78.70;;;;;;5109083;28;20361;-76
2022/06/28 02:25:14;;;;;;;;;;;29.00;79.10;;;;;;5108784;28;19928;-76
2022/06/28 02:27:42;;;;;;;;;;;28.90;79.30;;;;;;5091887;28;20365;-76
2022/06/28 02:30:10;;;;;;;;;;;29.00;79.00;;;;;;5075023;28;20316;-76
2022/06/28 02:32:37;;;;;;;;;;;29.00;78.20;;;;;;5091550;28;19959;-76
2022/06/28 02:40:37;;;;;;;;;;;29.00;78.50;;;;;;5093222;28;20463;-76
2022/06/28 02:43:04;;;;;;;;;;;29.00;78.00;;;;;;5091209;28;20022;-76
2022/06/28 02:45:33;;;;;;;;;;;29.00;76.60;;;;;;5091876;28;19924;-76
2022/06/28 02:48:00;;;;;;;;;;;29.00;76.20;;;;;;5074333;28;20009;-76
2022/06/28 02:50:29;;;;;;;;;;;29.00;75.90;;;;;;5091570;28;19954;-76
2022/06/28 02:52:57;;;;;;;;;;;28.90;76.10;;;;;;5091539;28;19931;-76
2022/06/28 02:55:24;;;;;;;;;;;28.80;76.00;;;;;;5091339;28;19935;-76
2022/06/28 02:57:52;;;;;;;;;;;28.80;76.00;;;;;;5108760;28;20339;-76
2022/06/28 03:00:20;;;;;;;;;;;28.80;75.80;;;;;;5076579;28;20277;-76
2022/06/28 03:02:48;;;;;;;;;;;28.80;75.80;;;;;;5106041;28;19926;-76
2022/06/28 03:05:19;;;;;;;;;;;28.90;75.50;;;;;;5111242;28;19919;-76
2022/06/28 03:07:47;;;;;;;;;;;28.90;75.30;;;;;;5077352;28;19924;-76
2022/06/28 03:10:18;;;;;;;;;;;28.90;74.30;;;;;;5094709;28;19923;-76
2022/06/28 03:12:46;;;;;;;;;;;28.90;73.70;;;;;;5094967;28;20255;-76
2022/06/28 03:15:13;;;;;;;;;;;29.00;73.10;;;;;;5094242;28;19930;-76
2022/06/28 03:17:43;;;;;;;;;;;28.90;73.10;;;;;;5094786;28;19928;-77
2022/06/28 03:20:11;;;;;;;;;;;29.00;73.20;;;;;;5094876;28;19919;-76
2022/06/28 03:22:39;;;;;;;;;;;28.80;73.20;;;;;;5111048;28;19923;-76
2022/06/28 03:25:07;;;;;;;;;;;28.80;73.60;;;;;;5110997;28;19920;-76
2022/06/28 03:27:36;;;;;;;;;;;28.80;73.40;;;;;;5094412;28;20021;-76
2022/06/28 03:30:04;;;;;;;;;;;28.70;73.00;;;;;;5094413;28;20284;-77
2022/06/28 03:32:32;;;;;;;;;;;28.70;73.20;;;;;;5093858;28;19919;-76
2022/06/28 03:35:02;;;;;;;;;;;28.70;73.30;;;;;;5093901;28;19920;-76
2022/06/28 03:37:30;;;;;;;;;;;28.70;73.50;;;;;;5094063;28;20369;-76
2022/06/28 03:40:02;;;;;;;;;;;28.80;73.40;;;;;;5093758;28;19962;-76
2022/06/28 03:42:30;;;;;;;;;;;28.80;73.10;;;;;;5111031;28;19919;-76
2022/06/28 03:44:57;;;;;;;;;;;28.70;73.20;;;;;;5093171;28;19920;-76
2022/06/28 03:47:25;;;;;;;;;;;28.70;73.40;;;;;;5093933;28;19919;-76
2022/06/28 03:50:12;;;;;;;;;;;28.70;73.50;;;;;;5101495;28;20408;-76
2022/06/28 03:52:52;;;;;;;;;;;28.70;73.80;;;;;;5110824;28;19973;-77
2022/06/28 03:55:38;;;;;;;;;;;28.70;74.10;;;;;;5109489;28;19931;-76
2022/06/28 03:58:06;;;;;;;;;;;28.70;73.30;;;;;;5110006;28;19924;-76
2022/06/28 04:00:34;;;;;;;;;;;28.80;73.10;;;;;;5110492;28;19926;-76
2022/06/28 04:03:01;;;;;;;;;;;28.80;73.10;;;;;;5110316;28;19929;-76
2022/06/28 04:05:38;;;;;;;;;;;28.80;72.10;;;;;;5094184;28;20258;-76
2022/06/28 04:08:08;;;;;;;;;;;28.90;72.10;;;;;;5110213;28;19944;-76
2022/06/28 04:11:14;;;;;;;;;;;28.90;72.40;;;;;;5093592;28;19970;-76
2022/06/28 04:13:44;;;;;;;;;;;28.90;72.40;;;;;;5110499;28;20386;-76
2022/06/28 04:16:13;;;;;;;;;;;29.00;72.10;;;;;;5093100;28;19919;-76
2022/06/28 04:18:43;;;;;;;;;;;29.00;71.40;;;;;;5110136;28;19924;-76
2022/06/28 04:21:25;;;;;;;;;;;29.10;71.40;;;;;;5102432;28;20373;-76
2022/06/28 04:24:22;;;;;;;;;;;29.20;71.00;;;;;;5101049;28;20301;-74
2022/06/28 04:27:05;;;;;;;;;;;29.30;70.30;;;;;;5092438;28;19945;-74
2022/06/28 04:29:33;;;;;;;;;;;29.40;70.50;;;;;;5092433;28;19927;-73
2022/06/28 04:32:03;;;;;;;;;;;29.50;69.90;;;;;;5075941;28;19923;-74
2022/06/28 04:34:31;;;;;;;;;;;29.60;69.70;;;;;;5109099;28;19949;-73
2022/06/28 04:36:59;;;;;;;;;;;29.70;69.70;;;;;;5109126;28;20369;-74
2022/06/28 04:39:27;;;;;;;;;;;29.80;69.10;;;;;;5109316;28;19931;-74
2022/06/28 04:42:06;;;;;;;;;;;29.90;69.00;;;;;;5092183;28;20326;-73
2022/06/28 04:44:38;;;;;;;;;;;29.90;68.60;;;;;;5092736;28;19924;-74
2022/06/28 04:47:08;;;;;;;;;;;30.10;68.70;;;;;;5091783;28;19923;-74
2022/06/28 04:49:37;;;;;;;;;;;30.20;68.20;;;;;;5092022;28;19938;-74
2022/06/28 04:52:05;;;;;;;;;;;30.30;68.40;;;;;;5092124;28;20042;-73
2022/06/28 04:54:36;;;;;;;;;;;30.40;69.30;;;;;;5107089;28;20018;-74
2022/06/28 04:57:19;;;;;;;;;;;30.50;69.30;;;;;;5076955;28;19920;-73
2022/06/28 05:00:07;;;;;;;;;;;30.50;69.00;;;;;;5109890;28;19962;-73
2022/06/28 05:02:40;;;;;;;;;;;30.60;68.90;;;;;;5091786;28;19973;-74
2022/06/28 05:05:22;;;;;;;;;;;30.80;69.00;;;;;;5076223;28;19928;-74
2022/06/28 05:07:50;;;;;;;;;;;30.80;70.40;;;;;;5093062;28;20543;-73
2022/06/28 05:10:23;;;;;;;;;;;30.90;70.90;;;;;;5068880;28;20365;-73
2022/06/28 05:13:26;;;;;;;;;;;31.00;70.40;;;;;;5071555;28;19923;-73
2022/06/28 05:15:54;;;;;;;;;;;31.10;69.40;;;;;;5105667;28;19923;-74
2022/06/28 05:18:22;;;;;;;;;;;31.10;69.60;;;;;;5093731;28;19950;-74
2022/06/28 05:20:49;;;;;;;;;;;31.20;70.20;;;;;;5109993;28;20411;-73
2022/06/28 05:23:17;;;;;;;;;;;31.30;70.40;;;;;;5092919;28;19927;-73
2022/06/28 05:26:14;;;;;;;;;;;31.40;70.90;;;;;;5092110;28;19920;-74
2022/06/28 05:28:51;;;;;;;;;;;31.50;71.10;;;;;;5093429;28;19975;-73
2022/06/28 05:31:18;;;;;;;;;;;31.70;70.20;;;;;;5109900;28;19930;-74
2022/06/28 05:33:46;;;;;;;;;;;31.70;70.10;;;;;;5092508;28;19924;-74
2022/06/28 05:36:14;;;;;;;;;;;31.80;69.00;;;;;;5109836;28;20412;-74
2022/06/28 05:38:41;;;;;;;;;;;32.00;69.20;;;;;;5092852;28;20377;-74
2022/06/28 05:41:11;;;;;;;;;;;32.00;68.20;;;;;;5092819;28;19959;-74
2022/06/28 05:43:39;;;;;;;;;;;32.10;67.90;;;;;;5110120;28;19924;-74
2022/06/28 05:46:07;;;;;;;;;;;32.10;67.90;;;;;;5106663;28;19951;-74
2022/06/28 05:48:36;;;;;;;;;;;32.30;67.90;;;;;;5109585;28;20064;-73
2022/06/28 05:51:03;;;;;;;;;;;32.30;67.70;;;;;;5109587;28;19980;-74
2022/06/28 05:53:30;;;;;;;;;;;32.50;67.80;;;;;;5093139;28;20270;-74
2022/06/28 05:55:58;;;;;;;;;;;32.60;66.20;;;;;;5110946;28;19923;-74
2022/06/28 05:58:26;;;;;;;;;;;32.50;64.80;;;;;;5092940;28;19923;-74
2022/06/28 06:00:54;;;;;;;;;;;32.70;64.40;;;;;;5109474;28;20030;-74
2022/06/28 06:03:22;;;;;;;;;;;32.80;64.10;;;;;;5109165;28;19924;-74
2022/06/28 06:05:50;;;;;;;;;;;32.90;63.60;;;;;;5092539;28;19923;-74
2022/06/28 06:08:17;;;;;;;;;;;33.00;63.40;;;;;;5108784;28;20406;-74
2022/06/28 06:10:47;;;;;;;;;;;33.10;62.70;;;;;;5109491;28;20377;-74
2022/06/28 06:13:15;;;;;;;;;;;33.20;62.50;;;;;;5109274;28;20331;-74
2022/06/28 06:15:43;;;;;;;;;;;33.30;62.70;;;;;;5092743;28;19928;-74
2022/06/28 06:18:10;;;;;;;;;;;33.40;63.50;;;;;;5109791;28;19919;-74
2022/06/28 06:20:37;;;;;;;;;;;33.60;63.50;;;;;;5109560;28;20046;-74
2022/06/28 06:23:05;;;;;;;;;;;33.80;63.10;;;;;;5108830;28;19946;-74
2022/06/28 06:25:58;;;;;;;;;;;34.00;63.00;;;;;;5093953;28;19930;-74
2022/06/28 06:28:27;;;;;;;;;;;34.10;62.40;;;;;;5109758;28;20396;-74
2022/06/28 06:30:54;;;;;;;;;;;34.30;62.30;;;;;;5110261;28;19927;-74
2022/06/28 06:33:52;;;;;;;;;;;34.40;62.40;;;;;;5092214;28;19924;-74
2022/06/28 06:36:45;;;;;;;;;;;34.50;62.40;;;;;;5092995;28;19927;-74
2022/06/28 06:39:14;;;;;;;;;;;34.70;62.10;;;;;;5095496;28;19967;-74
2022/06/28 06:41:41;;;;;;;;;;;34.80;63.20;;;;;;5112017;28;19937;-74
2022/06/28 06:44:09;;;;;;;;;;;35.00;63.10;;;;;;5076094;28;19993;-74
2022/06/28 06:46:40;;;;;;;;;;;35.20;64.60;;;;;;5109700;28;19920;-74
2022/06/28 06:49:09;;;;;;;;;;;35.30;63.20;;;;;;5092206;28;19997;-74
2022/06/28 06:51:37;;;;;;;;;;;35.40;62.50;;;;;;5092472;28;19927;-75
2022/06/28 06:54:04;;;;;;;;;;;35.50;61.90;;;;;;5093547;28;19924;-74
2022/06/28 06:56:32;;;;;;;;;;;35.60;61.50;;;;;;5092437;28;19924;-75
2022/06/28 06:58:59;;;;;;;;;;;35.70;63.00;;;;;;5109647;28;20359;-74
2022/06/28 07:01:29;;;;;;;;;;;35.80;63.50;;;;;;5092370;28;19928;-74
2022/06/28 07:04:17;;;;;;;;;;;35.80;60.60;;;;;;5092608;28;19931;-74
2022/06/28 07:06:45;;;;;;;;;;;35.60;59.80;;;;;;5092526;28;19930;-74
2022/06/28 07:09:12;;;;;;;;;;;35.70;59.60;;;;;;5109187;28;19920;-75
2022/06/28 07:11:41;;;;;;;;;;;35.70;59.60;;;;;;5075440;28;20370;-75
2022/06/28 07:14:09;;;;;;;;;;;35.70;59.50;;;;;;5075445;28;20547;-75
2022/06/28 07:16:38;;;;;;;;;;;35.90;58.80;;;;;;5074945;28;20085;-75
2022/06/28 07:19:05;;;;;;;;;;;35.90;58.30;;;;;;5091255;28;20381;-75
2022/06/28 07:21:33;;;;;;;;;;;36.00;58.40;;;;;;5093053;28;19924;-75
2022/06/28 07:24:01;;;;;;;;;;;36.20;59.20;;;;;;5092176;28;19976;-74
2022/06/28 07:26:30;;;;;;;;;;;36.20;59.40;;;;;;5092012;28;20023;-75
2022/06/28 07:28:58;;;;;;;;;;;36.20;59.70;;;;;;5092841;28;20395;-80
2022/06/28 07:31:27;;;;;;;;;;;36.40;59.60;;;;;;5108860;28;19928;-75
2022/06/28 07:33:55;;;;;;;;;;;36.60;60.80;;;;;;5090645;28;19977;-75
2022/06/28 07:36:22;;;;;;;;;;;36.70;59.40;;;;;;5094778;28;19927;-75
2022/06/28 07:38:51;;;;;;;;;;;36.80;58.90;;;;;;5091632;28;19928;-75
2022/06/28 07:41:21;;;;;;;;;;;36.60;58.40;;;;;;5091771;28;20618;-75
2022/06/28 07:44:07;;;;;;;;;;;36.80;58.80;;;;;;5091986;28;19931;-75
2022/06/28 07:46:36;;;;;;;;;;;36.80;58.60;;;;;;5074950;28;20401;-75
2022/06/28 07:49:05;;;;;;;;;;;36.90;59.10;;;;;;5057414;28;19924;-76
2022/06/28 07:54:21;;;;;;;;;;;37.10;58.10;;;;;;5091404;28;19919;-76
2022/06/28 07:56:57;;;;;;;;;;;37.10;57.90;;;;;;5093451;28;19920;-75
2022/06/28 07:59:26;;;;;;;;;;;37.00;57.60;;;;;;5095328;28;19928;-75
2022/06/28 08:01:54;;;;;;;;;;;37.00;58.20;;;;;;5111533;28;19924;-74
2022/06/28 08:04:27;;;;;;;;;;;36.80;58.50;;;;;;5072041;28;19931;-75
2022/06/28 08:06:58;;;;;;;;;;;36.70;58.60;;;;;;5111636;28;20067;-71
2022/06/28 08:09:26;;;;;;;;;;;36.60;58.70;;;;;;5095808;28;20696;-72
2022/06/28 08:11:54;;;;;;;;;;;36.60;59.20;;;;;;5111582;28;20046;-71
2022/06/28 08:14:22;;;;;;;;;;;36.60;59.40;;;;;;5109749;28;20034;-71
2022/06/28 08:16:49;;;;;;;;;;;36.90;59.90;;;;;;5092890;28;19927;-72
2022/06/28 08:19:18;;;;;;;;;;;37.10;60.00;;;;;;5110000;28;19976;-71
2022/06/28 08:21:49;;;;;;;;;;;37.40;59.90;;;;;;5094542;28;19961;-71
2022/06/28 08:24:17;;;;;;;;;;;37.40;59.00;;;;;;5094628;28;20343;-72
2022/06/28 08:26:44;;;;;;;;;;;37.40;59.30;;;;;;5094038;28;20278;-71
2022/06/28 08:29:13;;;;;;;;;;;37.60;59.10;;;;;;5112520;28;19927;-70
2022/06/28 08:31:43;;;;;;;;;;;37.80;58.90;;;;;;5108831;28;20721;-71
2022/06/28 08:34:10;;;;;;;;;;;37.90;58.90;;;;;;5094168;28;19970;-71
2022/06/28 08:36:38;;;;;;;;;;;38.00;58.00;;;;;;5111241;28;19923;-71
2022/06/28 08:39:05;;;;;;;;;;;38.00;58.00;;;;;;5111090;28;19928;-71
2022/06/28 08:41:33;;;;;;;;;;;38.10;58.00;;;;;;5112071;28;19956;-71
2022/06/28 08:44:01;;;;;;;;;;;38.10;58.20;;;;;;5110675;28;19976;-71
2022/06/28 08:46:28;;;;;;;;;;;38.20;58.20;;;;;;5111917;28;19920;-72
2022/06/28 08:49:01;;;;;;;;;;;38.20;58.60;;;;;;5110771;28;19934;-72
2022/06/28 08:51:31;;;;;;;;;;;38.20;58.60;;;;;;5110913;28;19923;-71
2022/06/28 08:54:00;;;;;;;;;;;38.30;58.80;;;;;;5093778;28;20289;-71
2022/06/28 08:56:28;;;;;;;;;;;38.40;58.30;;;;;;5110745;28;20392;-71
2022/06/28 08:58:59;;;;;;;;;;;38.40;58.60;;;;;;5111978;28;19924;-71
2022/06/28 09:01:26;;;;;;;;;;;38.40;58.90;;;;;;5110850;28;19947;-72
2022/06/28 09:03:54;;;;;;;;;;;38.40;58.80;;;;;;5093722;28;19923;-71
2022/06/28 09:06:23;;;;;;;;;;;38.20;58.90;;;;;;5112060;28;19930;-71
2022/06/28 09:08:51;;;;;;;;;;;38.30;59.00;;;;;;5110485;28;19966;-71
2022/06/28 09:11:18;;;;;;;;;;;38.20;58.80;;;;;;5092977;28;20022;-71
2022/06/28 09:13:46;;;;;;;;;;;38.10;59.40;;;;;;5110258;28;19930;-71
2022/06/28 09:16:13;;;;;;;;;;;38.20;59.90;;;;;;5111668;28;19977;-72
2022/06/28 09:18:42;;;;;;;;;;;38.20;59.40;;;;;;5110187;28;20022;-72
2022/06/28 09:21:12;;;;;;;;;;;38.40;59.30;;;;;;5092192;28;19923;-72
2022/06/28 09:23:40;;;;;;;;;;;38.40;59.10;;;;;;5092887;28;19923;-72
2022/06/28 09:26:08;;;;;;;;;;;38.50;59.10;;;;;;5093711;28;19927;-71
2022/06/28 09:28:39;;;;;;;;;;;38.50;58.50;;;;;;5109051;28;20369;-71
2022/06/28 09:31:16;;;;;;;;;;;38.50;58.70;;;;;;5093010;28;19993;-72
2022/06/28 09:33:48;;;;;;;;;;;38.40;58.90;;;;;;5111598;28;19924;-71
2022/06/28 09:36:17;;;;;;;;;;;38.50;58.90;;;;;;5110007;28;19923;-72
2022/06/28 09:38:44;;;;;;;;;;;38.50;59.10;;;;;;5111090;28;19920;-71
2022/06/28 09:41:19;;;;;;;;;;;38.60;59.10;;;;;;5092641;28;19923;-72
2022/06/28 09:43:53;;;;;;;;;;;38.70;58.90;;;;;;5092745;28;19923;-70
2022/06/28 09:46:23;;;;;;;;;;;38.60;59.10;;;;;;5110186;28;19923;-72
2022/06/28 09:48:51;;;;;;;;;;;38.40;59.10;;;;;;5093206;28;20006;-71
2022/06/28 09:51:22;;;;;;;;;;;38.40;59.00;;;;;;5092738;28;19931;-71
2022/06/28 09:53:55;;;;;;;;;;;38.40;59.30;;;;;;5110952;28;19924;-72
2022/06/28 09:56:43;;;;;;;;;;;38.50;59.70;;;;;;5078975;28;19920;-71
2022/06/28 09:59:11;;;;;;;;;;;38.50;60.30;;;;;;5111271;28;19930;-72
2022/06/28 10:01:39;;;;;;;;;;;38.60;59.90;;;;;;5110016;28;19966;-71
2022/06/28 10:04:06;;;;;;;;;;;38.80;60.10;;;;;;5092499;28;20034;-72
2022/06/28 10:06:34;;;;;;;;;;;38.80;59.70;;;;;;5092726;28;19919;-71
2022/06/28 10:09:04;;;;;;;;;;;38.90;59.60;;;;;;5109570;28;19924;-72
2022/06/28 10:15:01;;;;;;;;;;;39.00;59.60;;;;;;5111308;28;20018;-71
2022/06/28 10:17:29;;;;;;;;;;;39.00;59.70;;;;;;5113652;28;19930;-72
2022/06/28 10:19:57;;;;;;;;;;;39.00;59.80;;;;;;5101576;28;19973;-71
2022/06/28 10:22:25;;;;;;;;;;;39.00;59.70;;;;;;5114848;28;19931;-71
2022/06/28 10:24:56;;;;;;;;;;;39.00;59.30;;;;;;5112417;28;20647;-72
2022/06/28 10:27:25;;;;;;;;;;;39.00;59.10;;;;;;5114836;28;19931;-71
2022/06/28 10:30:07;;;;;;;;;;;38.90;59.20;;;;;;5114794;28;19927;-71
2022/06/28 10:32:38;;;;;;;;;;;38.90;60.00;;;;;;5113524;28;19924;-71
2022/06/28 10:35:06;;;;;;;;;;;38.70;60.90;;;;;;5095628;28;20046;-72
2022/06/28 10:37:34;;;;;;;;;;;38.60;62.90;;;;;;5112482;28;19924;-72
2022/06/28 10:40:20;;;;;;;;;;;38.60;63.10;;;;;;5112525;28;19930;-72
2022/06/28 10:42:49;;;;;;;;;;;38.50;63.60;;;;;;5096034;28;19923;-72
2022/06/28 10:45:16;;;;;;;;;;;38.20;64.50;;;;;;5112064;28;19931;-72
2022/06/28 10:48:02;;;;;;;;;;;37.90;64.60;;;;;;5113360;28;19920;-71
2022/06/28 10:50:30;;;;;;;;;;;37.90;64.50;;;;;;5112331;28;19936;-72
2022/06/28 10:53:01;;;;;;;;;;;37.70;65.00;;;;;;5095150;28;20697;-72
2022/06/28 10:55:28;;;;;;;;;;;37.60;65.40;;;;;;5112121;28;20361;-71
2022/06/28 10:58:06;;;;;;;;;;;37.40;65.60;;;;;;5095159;28;19974;-73
2022/06/28 11:00:49;;;;;;;;;;;37.30;66.70;;;;;;5111762;28;20031;-71
2022/06/28 11:03:16;;;;;;;;;;;37.20;66.60;;;;;;5111642;28;20361;-71
2022/06/28 11:05:46;;;;;;;;;;;37.30;67.10;;;;;;5113497;28;19931;-72
2022/06/28 11:08:40;;;;;;;;;;;37.40;67.00;;;;;;5111548;28;20285;-71
2022/06/28 11:11:08;;;;;;;;;;;37.50;66.90;;;;;;5070196;28;19934;-72
2022/06/28 11:13:35;;;;;;;;;;;37.40;66.40;;;;;;5111754;28;20293;-74
2022/06/28 11:16:03;;;;;;;;;;;37.50;66.10;;;;;;5110564;28;20011;-72
2022/06/28 11:18:31;;;;;;;;;;;37.50;65.60;;;;;;5113203;28;19920;-71
2022/06/28 11:20:59;;;;;;;;;;;37.60;65.80;;;;;;5094431;28;19931;-73
2022/06/28 11:23:30;;;;;;;;;;;37.60;66.00;;;;;;5111289;28;19930;-72
2022/06/28 11:29:03;;;;;;;;;;;37.40;67.60;;;;;;5111499;28;19988;-72
2022/06/28 11:31:38;;;;;;;;;;;37.40;67.50;;;;;;5111552;28;19996;-72
2022/06/28 11:34:06;;;;;;;;;;;37.30;68.20;;;;;;5112704;28;20312;-71
2022/06/28 11:36:34;;;;;;;;;;;37.20;67.80;;;;;;5113024;28;19919;-72
2022/06/28 11:39:03;;;;;;;;;;;37.30;67.90;;;;;;5094224;28;19920;-72
2022/06/28 11:41:32;;;;;;;;;;;37.30;67.80;;;;;;5111834;28;19920;-72
2022/06/28 11:44:00;;;;;;;;;;;37.20;68.70;;;;;;5111513;28;19955;-72
2022/06/28 11:46:28;;;;;;;;;;;37.20;69.50;;;;;;5111183;28;19927;-72
2022/06/28 11:48:55;;;;;;;;;;;37.10;69.30;;;;;;5095247;28;19923;-71
2022/06/28 11:51:31;;;;;;;;;;;36.90;69.30;;;;;;5111651;28;19919;-72
2022/06/28 11:53:59;;;;;;;;;;;36.70;69.40;;;;;;5111789;28;20278;-72
2022/06/28 11:56:40;;;;;;;;;;;36.70;69.30;;;;;;5112827;28;19923;-72
2022/06/28 11:59:07;;;;;;;;;;;36.80;69.50;;;;;;5094525;28;20400;-72
2022/06/28 12:01:39;;;;;;;;;;;36.70;69.40;;;;;;5094274;28;19920;-72
2022/06/28 12:04:07;;;;;;;;;;;36.70;69.10;;;;;;5095098;28;20014;-72
2022/06/28 12:06:35;;;;;;;;;;;36.70;69.20;;;;;;5094320;28;19923;-72
2022/06/28 12:09:04;;;;;;;;;;;36.70;68.60;;;;;;5093274;28;19920;-71
2022/06/28 12:11:40;;;;;;;;;;;36.70;68.60;;;;;;5096197;28;19920;-71
2022/06/28 12:14:09;;;;;;;;;;;36.60;68.10;;;;;;5087745;28;20052;-71
2022/06/28 12:16:44;;;;;;;;;;;36.50;67.60;;;;;;5112356;28;19923;-71
2022/06/28 12:19:13;;;;;;;;;;;36.60;67.90;;;;;;5093289;28;19924;-72
2022/06/28 12:22:00;;;;;;;;;;;36.50;66.80;;;;;;5111351;28;19924;-72
2022/06/28 12:24:47;;;;;;;;;;;36.60;66.70;;;;;;5109917;28;20403;-71
2022/06/28 12:27:17;;;;;;;;;;;36.50;66.60;;;;;;5074725;28;20399;-71
2022/06/28 12:29:45;;;;;;;;;;;36.50;66.30;;;;;;5093156;28;19924;-71
2022/06/28 12:32:12;;;;;;;;;;;36.50;66.10;;;;;;5109015;28;19927;-72
2022/06/28 12:34:57;;;;;;;;;;;36.40;66.30;;;;;;5109108;28;20567;-72
2022/06/28 12:37:27;;;;;;;;;;;36.40;65.50;;;;;;5107784;28;20369;-72
2022/06/28 12:39:55;;;;;;;;;;;36.40;65.70;;;;;;5106217;28;19959;-73
2022/06/28 12:42:23;;;;;;;;;;;36.40;66.10;;;;;;5108833;28;19919;-71
2022/06/28 12:44:50;;;;;;;;;;;36.40;65.90;;;;;;5087058;28;19924;-71
2022/06/28 12:47:19;;;;;;;;;;;36.40;65.90;;;;;;5106816;28;19931;-72
2022/06/28 12:49:46;;;;;;;;;;;36.40;65.50;;;;;;5110439;28;19920;-71
2022/06/28 12:52:14;;;;;;;;;;;36.50;66.00;;;;;;5108911;28;20010;-71
2022/06/28 12:54:42;;;;;;;;;;;36.70;65.90;;;;;;5105900;28;19955;-71
2022/06/28 12:57:09;;;;;;;;;;;36.90;65.50;;;;;;5090416;28;19923;-72
2022/06/28 12:59:37;;;;;;;;;;;36.80;64.90;;;;;;5105119;28;19926;-72
2022/06/28 13:02:04;;;;;;;;;;;36.70;64.60;;;;;;5090840;28;19947;-70
2022/06/28 13:04:33;;;;;;;;;;;36.50;64.90;;;;;;5089370;28;20005;-71
2022/06/28 13:07:00;;;;;;;;;;;36.50;64.90;;;;;;5110257;27;20289;-71
2022/06/28 13:09:29;;;;;;;;;;;36.50;64.80;;;;;;5117568;27;19927;-72
2022/06/28 13:11:57;;;;;;;;;;;36.50;64.10;;;;;;5105358;28;19973;-70
2022/06/28 13:14:24;;;;;;;;;;;36.30;64.10;;;;;;5104595;28;19924;-71
2022/06/28 13:16:52;;;;;;;;;;;36.10;64.40;;;;;;5110528;28;19961;-71
2022/06/28 13:19:19;;;;;;;;;;;36.10;64.70;;;;;;5109752;28;19938;-73
2022/06/28 13:21:48;;;;;;;;;;;36.00;65.00;;;;;;5111952;28;19924;-72
2022/06/28 13:24:15;;;;;;;;;;;35.80;65.30;;;;;;5093716;28;19924;-71
2022/06/28 13:26:43;;;;;;;;;;;35.70;65.20;;;;;;5110351;28;19984;-71
2022/06/28 13:29:11;;;;;;;;;;;35.70;65.00;;;;;;5110332;28;20373;-71
2022/06/28 13:31:39;;;;;;;;;;;35.70;64.70;;;;;;5093268;28;19923;-72
2022/06/28 13:34:06;;;;;;;;;;;35.60;64.10;;;;;;5110092;28;19923;-71
2022/06/28 13:36:34;;;;;;;;;;;35.60;62.90;;;;;;5092837;28;19920;-72
2022/06/28 13:39:03;;;;;;;;;;;35.60;62.90;;;;;;5110013;28;19927;-72
2022/06/28 13:41:35;;;;;;;;;;;35.70;62.40;;;;;;5093041;28;19930;-73
2022/06/28 13:44:02;;;;;;;;;;;35.80;62.30;;;;;;5111107;28;19924;-72
2022/06/28 13:46:30;;;;;;;;;;;35.80;62.20;;;;;;5093529;28;19919;-72
2022/06/28 13:48:58;;;;;;;;;;;35.80;62.10;;;;;;5098866;28;19973;-71
2022/06/28 13:51:25;;;;;;;;;;;35.90;61.70;;;;;;5118082;28;19949;-71
2022/06/28 13:53:53;;;;;;;;;;;35.80;62.00;;;;;;5117914;28;19931;-71
2022/06/28 13:56:20;;;;;;;;;;;35.80;62.00;;;;;;5117122;28;19923;-71
2022/06/28 13:58:48;;;;;;;;;;;35.70;62.40;;;;;;5099565;28;19974;-72
2022/06/28 14:01:15;;;;;;;;;;;35.70;62.40;;;;;;5082014;28;19938;-71
2022/06/28 14:03:43;;;;;;;;;;;35.60;62.40;;;;;;5100042;28;19923;-72
2022/06/28 14:06:10;;;;;;;;;;;35.50;62.10;;;;;;5116928;28;20335;-71
2022/06/28 14:08:38;;;;;;;;;;;35.50;62.00;;;;;;5116827;28;19935;-72
2022/06/28 14:11:06;;;;;;;;;;;35.40;61.90;;;;;;5099058;28;19927;-71
2022/06/28 14:13:33;;;;;;;;;;;35.50;61.70;;;;;;5099769;28;20068;-72
2022/06/28 14:16:01;;;;;;;;;;;35.60;61.40;;;;;;5116133;28;19923;-72
2022/06/28 14:18:29;;;;;;;;;;;35.50;61.30;;;;;;5116738;28;19923;-71
2022/06/28 14:20:56;;;;;;;;;;;35.50;61.70;;;;;;5117862;28;20047;-71
2022/06/28 14:23:24;;;;;;;;;;;35.50;62.00;;;;;;5116663;28;19931;-71
2022/06/28 14:25:52;;;;;;;;;;;35.40;62.10;;;;;;5116656;28;19923;-71
2022/06/28 14:28:19;;;;;;;;;;;35.40;62.90;;;;;;5117599;28;19927;-71
2022/06/28 14:30:51;;;;;;;;;;;35.40;63.20;;;;;;5116379;28;20289;-71
2022/06/28 14:33:19;;;;;;;;;;;35.40;65.20;;;;;;5116205;28;20334;-71
2022/06/28 14:35:47;;;;;;;;;;;35.30;65.50;;;;;;5099634;28;20015;-71
2022/06/28 14:38:17;;;;;;;;;;;35.20;65.50;;;;;;5116317;28;19924;-71
2022/06/28 14:40:44;;;;;;;;;;;35.30;65.40;;;;;;5098525;28;19920;-71
2022/06/28 14:43:12;;;;;;;;;;;35.30;65.10;;;;;;5116312;28;19930;-71
2022/06/28 14:45:39;;;;;;;;;;;35.30;65.10;;;;;;5116399;28;19919;-71
2022/06/28 14:48:22;;;;;;;;;;;35.40;65.30;;;;;;5108187;28;20366;-71
2022/06/28 14:50:51;;;;;;;;;;;35.40;66.70;;;;;;5117655;28;19930;-71
2022/06/28 14:53:18;;;;;;;;;;;35.40;66.90;;;;;;5116286;28;19947;-72